Latest Weather Observations for Laverton

IDW60801

Issued at 11:03 am WST Sunday 31 July 2016 (issued every 30 minutes, with the page automatically refreshed every 10 minutes)

About weather observations | Map of weather stations | Latest weather observations for WA | Other Formats
Station Details ID: 012305 Name: LAVERTON AERO Lat: -28.61 Lon: 122.42 Height: 464.3 m
Data from the previous 72 hours. | See also: Recent months at Laverton
Date/Time
WST
Temp
°C
App
Temp
°C
Dew
Point
°C
Rel
Hum
%
Delta-T
°C
Wind Press
QNH
hPa
Press
MSL
hPa
Rain since
9am
mm
Dir  Spd
km/h
Gust
km/h
Spd
kts
Gust
kts
31/11:00am 16.0 8.9 3.4 43 5.9 WSW 30 39 16 21 1019.5 1019.3 0.0
31/10:30am 15.1 8.1 4.2 48 5.2 SW 30 41 16 22 1019.8 1019.6 0.0
31/10:00am 14.6 8.8 4.6 51 4.8 SW 24 32 13 17 1020.2 1020.0 0.0
31/09:30am 13.7 8.9 5.8 59 3.8 WSW 20 30 11 16 1020.3 1020.1 0.0
31/09:00am 13.2 7.7 6.1 62 3.4 SW 24 37 13 20 1020.2 1020.0 0.0
31/08:30am 12.8 8.4 6.6 66 3.0 SW 19 26 10 14 1019.7 1019.5 0.0
31/08:00am 12.5 9.0 7.2 70 2.6 SW 15 20 8 11 1019.3 1019.1 0.0
31/07:30am 12.4 7.5 7.1 70 2.6 SW 22 33 12 18 1019.0 1018.8 0.0
31/07:00am 13.0 8.2 7.5 69 2.7 SW 22 30 12 16 1018.3 1018.1 0.0
31/06:30am 13.8 10.1 8.0 68 3.0 SW 17 24 9 13 1017.7 1017.5 0.0
31/06:00am 14.3 10.7 8.3 67 3.1 SW 17 20 9 11 1017.4 1017.2 0.0
31/05:30am 14.7 10.7 8.4 66 3.3 SW 19 26 10 14 1017.1 1016.9 0.0
31/05:00am 15.3 11.8 8.8 65 3.4 SSW 17 22 9 12 1016.9 1016.7 0.0
31/04:30am 15.6 14.3 11.4 76 2.3 WSW 9 17 5 9 1016.6 1016.3 0.0
31/04:00am 15.6 14.3 11.4 76 2.3 W 9 13 5 7 1016.5 1016.2 0.0
31/03:30am 15.7 14.5 11.7 77 2.2 WNW 9 13 5 7 1016.3 1016.1 0.0
31/03:00am 15.5 14.4 12.1 80 1.9 NNW 9 9 5 5 1016.5 1016.2 0.0
31/02:30am 15.5 14.8 12.1 80 1.9 NW 7 9 4 5 1016.5 1016.2 0.0
31/02:00am 15.5 15.6 12.8 84 1.5 NNW 4 9 2 5 1016.6 1016.3 0.0
31/01:30am 16.0 16.8 12.4 79 2.0 CALM 0 4 0 2 1016.7 1016.4 0.0
31/01:00am 16.3 15.0 11.2 72 2.8 W 9 11 5 6 1016.9 1016.7 0.0
31/12:30am 16.5 16.1 12.3 76 2.4 W 6 7 3 4 1017.0 1016.8 0.0
31/12:00am 17.1 16.3 11.8 71 3.0 SW 7 9 4 5 1017.1 1016.9 0.0
 
Date/Time
WST
Temp
°C
App
Temp
°C
Dew
Point
°C
Rel
Hum
%
Delta-T
°C
Wind Press
QNH
hPa
Press
MSL
hPa
Rain since
9am
mm
Dir  Spd
km/h
Gust
km/h
Spd
kts
Gust
kts
30/11:30pm 17.4 16.8 11.7 69 3.2 SW 6 9 3 5 1017.1 1016.9 0.0
30/11:00pm 17.4 16.9 12.7 74 2.7 SSW 7 9 4 5 1017.5 1017.3 0.0
30/10:30pm 17.3 16.5 12.8 75 2.6 SSW 9 13 5 7 1017.6 1017.4 0.0
30/10:00pm 18.0 16.9 13.1 73 2.8 S 11 13 6 7 1017.6 1017.4 0.0
30/09:30pm 18.2 16.8 13.3 73 2.8 S 13 15 7 8 1017.5 1017.3 0.0
30/09:00pm 18.7 19.9 15.0 79 2.2 SSW 2 11 1 6 1017.5 1017.3 0.0
30/08:30pm 18.9 19.1 14.2 74 2.8 S 6 7 3 4 1017.4 1017.2 0.0
30/08:00pm 19.5 20.9 14.3 72 3.1 CALM 0 4 0 2 1017.3 1017.1 0.0
30/07:30pm 19.9 19.6 13.4 66 3.8 SSW 7 9 4 5 1017.2 1017.0 0.0
30/07:00pm 20.3 20.0 13.3 64 4.1 SSW 7 9 4 5 1017.2 1017.0 0.0
30/06:30pm 20.8 20.1 13.3 62 4.4 SSW 9 11 5 6 1016.9 1016.7 0.0
30/06:00pm 21.4 20.7 13.1 59 4.8 SSW 9 13 5 7 1016.6 1016.3 0.0
30/05:30pm 22.0 21.5 12.5 54 5.5 SSW 7 9 4 5 1016.2 1016.0 0.0
30/05:00pm 22.3 21.2 12.0 52 5.9 SSW 9 13 5 7 1016.1 1015.9 0.0
30/04:30pm 22.7 20.8 11.7 49 6.3 SW 13 19 7 10 1016.0 1015.8 0.0
30/04:00pm 23.0 21.0 11.4 48 6.6 WSW 13 19 7 10 1015.8 1015.6 0.0
30/03:30pm 23.2 21.5 11.3 47 6.8 WSW 11 19 6 10 1015.9 1015.7 0.0
30/03:00pm 23.6 21.9 11.3 46 7.0 WSW 11 19 6 10 1016.0 1015.8 0.0
30/02:30pm 23.5 21.9 11.5 47 6.9 WSW 11 20 6 11 1016.0 1015.8 0.0
30/02:00pm 23.0 20.7 11.7 49 6.5 WSW 15 22 8 12 1016.6 1016.3 0.0
30/01:30pm 22.8 20.0 11.5 49 6.5 WSW 17 26 9 14 1017.0 1016.8 0.0
30/01:00pm 22.8 20.9 11.8 50 6.3 WSW 13 17 7 9 1017.2 1017.0 0.0
30/12:30pm 22.5 20.5 11.6 50 6.2 WSW 13 19 7 10 1017.6 1017.4 0.0
30/12:00pm 22.1 19.7 11.5 51 6.0 SW 15 22 8 12 1018.1 1017.9 0.0
30/11:30am 21.8 19.3 11.2 51 6.0 WSW 15 19 8 10 1018.6 1018.5 0.0
30/11:00am 21.1 18.9 10.9 52 5.7 SW 13 19 7 10 1019.1 1018.9 0.0
30/10:30am 21.0 19.5 10.5 51 5.8 SW 9 13 5 7 1019.5 1019.3 0.0
30/10:00am 19.9 17.5 10.0 53 5.4 SW 13 17 7 9 1019.9 1019.7 0.0
30/09:30am 19.4 17.4 10.1 55 5.1 WSW 11 17 6 9 1020.1 1019.9 0.0
30/09:00am 19.1 17.3 9.3 53 5.3 W 9 15 5 8 1019.8 1019.6 0.0
30/08:30am 17.5 15.9 8.6 56 4.7 W 7 9 4 5 1019.9 1019.7 0.0
30/08:00am 15.7 14.3 8.9 64 3.6 NNW 6 7 3 4 1019.8 1019.6 0.0
30/07:30am 14.7 13.0 8.2 65 3.3 N 7 9 4 5 1019.5 1019.3 0.0
30/07:00am 13.6 11.4 8.0 69 2.8 N 9 9 5 5 1019.1 1018.9 0.0
30/06:30am 13.2 12.6 7.6 69 2.8 CALM 0 0 0 0 1018.8 1018.6 0.0
30/06:00am 14.0 13.0 7.3 64 3.4 WNW 2 6 1 3 1018.6 1018.5 0.0
30/05:30am 14.1 12.0 6.7 61 3.7 WNW 7 9 4 5 1018.3 1018.1 0.0
30/05:00am 14.5 12.5 6.1 57 4.1 NW 6 7 3 4 1018.2 1018.0 0.0
30/04:30am 15.0 12.8 6.3 56 4.3 NNW 7 7 4 4 1017.9 1017.7 0.0
30/04:00am 14.6 12.0 5.9 56 4.3 NNW 9 9 5 5 1017.8 1017.6 0.0
30/03:30am 15.4 13.0 5.3 51 4.9 NW 7 9 4 5 1017.8 1017.6 0.0
30/03:00am 15.7 13.2 5.0 49 5.2 NW 7 9 4 5 1017.9 1017.7 0.0
30/02:30am 16.4 13.6 5.1 47 5.5 NNW 9 11 5 6 1018.0 1017.8 0.0
30/02:00am 16.9 14.0 4.6 44 6.0 NNW 9 13 5 7 1018.1 1017.9 0.0
30/01:30am 17.7 14.0 4.3 41 6.5 NW 13 15 7 8 1018.4 1018.2 0.0
30/01:00am 17.8 14.0 4.0 40 6.6 NW 13 19 7 10 1018.5 1018.3 0.0
30/12:30am 17.5 13.3 3.8 40 6.6 NNW 15 19 8 10 1018.5 1018.3 0.0
30/12:00am 17.9 13.7 3.8 39 6.8 NNW 15 19 8 10 1018.6 1018.5 0.0
 
Date/Time
WST
Temp
°C
App
Temp
°C
Dew
Point
°C
Rel
Hum
%
Delta-T
°C
Wind Press
QNH
hPa
Press
MSL
hPa
Rain since
9am
mm
Dir  Spd
km/h
Gust
km/h
Spd
kts
Gust
kts
29/11:30pm 17.8 13.6 3.7 39 6.8 NNW 15 20 8 11 1018.6 1018.5 0.0
29/11:00pm 17.8 13.3 4.4 41 6.5 N 17 22 9 12 1018.6 1018.5 0.0
29/10:30pm 17.2 12.8 4.9 44 6.0 N 17 20 9 11 1018.9 1018.7 0.0
29/10:00pm 17.2 13.6 5.2 45 5.9 NNW 13 17 7 9 1018.9 1018.7 0.0
29/09:30pm 17.4 13.4 5.0 44 6.1 N 15 17 8 9 1018.8 1018.6 0.0
29/09:00pm 17.7 13.7 5.0 43 6.2 N 15 19 8 10 1018.6 1018.5 0.0
29/08:30pm 17.4 13.9 5.4 45 5.9 N 13 17 7 9 1018.8 1018.6 0.0
29/08:00pm 16.8 13.8 6.0 49 5.4 N 11 13 6 7 1018.9 1018.7 0.0
29/07:30pm 17.4 14.4 6.0 47 5.7 N 11 13 6 7 1018.6 1018.5 0.0
29/07:00pm 17.7 14.7 5.9 46 5.9 N 11 13 6 7 1018.4 1018.2 0.0
29/06:30pm 18.8 15.7 5.6 42 6.6 N 11 13 6 7 1018.1 1017.9 0.0
29/06:00pm 20.9 17.6 4.5 34 8.2 NNW 11 13 6 7 1017.9 1017.7 0.0
29/05:30pm 22.5 19.2 4.5 31 9.1 NW 11 15 6 8 1017.8 1017.6 0.0
29/05:00pm 24.7 20.1 3.9 26 10.5 NW 17 24 9 13 1017.6 1017.4 0.0
29/04:30pm 25.6 20.6 3.6 24 11.1 NW 19 24 10 13 1017.5 1017.3 0.0
29/04:00pm 25.9 20.3 3.2 23 11.4 NW 22 30 12 16 1017.5 1017.3 0.0
29/03:30pm 26.1 20.5 3.4 23 11.5 NW 22 30 12 16 1017.5 1017.3 0.0
29/03:00pm 25.9 20.4 3.8 24 11.2 NW 22 32 12 17 1017.5 1017.3 0.0
29/02:30pm 25.8 20.5 3.1 23 11.4 NW 20 28 11 15 1017.5 1017.3 0.0
29/02:00pm 25.9 20.6 3.2 23 11.4 NW 20 30 11 16 1017.9 1017.7 0.0
29/01:30pm 25.7 19.9 2.4 22 11.5 NNW 22 30 12 16 1018.2 1018.0 0.0
29/01:00pm 25.3 19.8 2.1 22 11.4 NNW 20 28 11 15 1018.9 1018.7 0.0
29/12:30pm 24.7 19.2 1.6 22 11.2 NW 20 30 11 16 1019.5 1019.3 0.0
29/12:00pm 24.1 18.5 1.1 22 11.0 NW 20 28 11 15 1020.1 1019.9 0.0
29/11:30am 22.7 17.9 2.8 27 9.7 NW 17 24 9 13 1020.8 1020.7 0.0
29/11:00am 22.9 17.4 1.9 25 10.1 NNW 20 28 11 15 1021.5 1021.3 0.0
29/10:30am 22.3 16.3 1.3 25 9.9 NNW 22 32 12 17 1021.9 1021.7 0.0
29/10:00am 21.6 16.2 1.3 26 9.5 NNW 19 28 10 15 1022.3 1022.2 0.0
29/09:30am 21.0 16.1 2.3 29 8.9 NNW 17 22 9 12 1022.6 1022.5 0.0
29/09:00am 19.3 14.0 1.8 31 8.1 NNW 19 24 10 13 1022.5 1022.4 0.0
29/08:30am 18.5 14.0 2.4 34 7.6 N 15 20 8 11 1022.4 1022.3 0.0
29/08:00am 16.3 11.5 2.7 40 6.3 N 17 22 9 12 1022.4 1022.3 0.0
29/07:30am 14.4 10.0 2.6 45 5.4 NNE 15 19 8 10 1022.2 1022.0 0.0
29/07:00am 12.6 9.7 2.5 50 4.5 NNE 7 9 4 5 1022.0 1021.8 0.0
29/06:30am 12.9 9.3 2.7 50 4.6 NNE 11 13 6 7 1021.8 1021.6 0.0
29/06:00am 12.4 8.8 3.1 53 4.2 NNE 11 13 6 7 1021.5 1021.3 0.0
29/05:30am 9.5 7.2 5.9 78 1.7 NNE 7 9 4 5 1021.4 1021.2 0.0
29/05:00am 9.2 6.9 5.8 79 1.6 NE 7 7 4 4 1021.3 1021.1 0.0
29/04:30am 9.2 6.7 5.0 75 1.9 NE 7 7 4 4 1021.3 1021.1 0.0
29/04:00am 9.2 8.2 5.6 78 1.7 CALM 0 4 0 2 1021.3 1021.1 0.0
29/03:30am 9.4 8.4 5.4 76 1.9 CALM 0 0 0 0 1021.4 1021.2 0.0
29/03:00am 9.9 7.5 5.3 73 2.1 NNE 7 9 4 5 1021.4 1021.2 0.0
29/02:30am 9.9 7.2 5.7 75 2.0 NNE 9 9 5 5 1021.6 1021.4 0.0
29/02:00am 10.0 8.6 5.6 74 2.1 NE 2 9 1 5 1021.8 1021.6 0.0
29/01:30am 10.2 9.1 5.2 71 2.3 CALM 0 0 0 0 1022.1 1021.9 0.0
29/01:00am 9.8 8.3 5.2 73 2.1 E 2 6 1 3 1022.3 1022.2 0.0
29/12:30am 9.6 7.1 4.6 71 2.3 E 7 9 4 5 1022.5 1022.4 0.0
29/12:00am 9.2 5.9 4.6 73 2.1 NE 11 13 6 7 1022.6 1022.5 0.0
 
Date/Time
WST
Temp
°C
App
Temp
°C
Dew
Point
°C
Rel
Hum
%
Delta-T
°C
Wind Press
QNH
hPa
Press
MSL
hPa
Rain since
9am
mm
Dir  Spd
km/h
Gust
km/h
Spd
kts
Gust
kts
28/11:30pm 9.5 6.3 4.9 73 2.1 ENE 11 11 6 6 1022.8 1022.7 0.0
28/11:00pm 9.6 6.8 5.2 74 2.0 NE 9 13 5 7 1023.0 1022.9 0.0
28/10:30pm 9.7 7.1 6.1 78 1.7 NE 9 9 5 5 1023.2 1023.1 0.0
28/10:00pm 10.2 8.2 6.2 76 1.9 ENE 6 7 3 4 1023.4 1023.2 0.0
28/09:30pm 10.8 8.5 5.8 71 2.4 E 7 9 4 5 1023.5 1023.3 0.0
28/09:00pm 11.3 9.1 6.0 70 2.5 ENE 7 9 4 5 1023.6 1023.4 0.0
28/08:30pm 11.9 8.8 5.5 65 3.0 ENE 11 13 6 7 1023.5 1023.3 0.0
28/08:00pm 12.2 10.0 6.0 66 3.0 NE 7 9 4 5 1023.7 1023.5 0.0
28/07:30pm 12.7 11.9 6.7 67 2.9 CALM 0 0 0 0 1023.7 1023.5 0.0
28/07:00pm 14.1 13.5 7.2 63 3.4 CALM 0 0 0 0 1023.6 1023.4 0.0
28/06:30pm 15.1 14.0 6.9 58 4.1 N 2 6 1 3 1023.6 1023.4 0.0
28/06:00pm 16.5 14.2 4.9 46 5.6 NNW 6 7 3 4 1023.1 1023.0 0.0
28/05:30pm 18.5 17.3 4.7 40 6.8 CALM 0 0 0 0 1022.9 1022.8 0.0
28/05:00pm 21.4 18.5 1.7 27 9.3 WNW 6 9 3 5 1022.8 1022.7 0.0
28/04:30pm 22.0 18.5 1.1 25 9.8 NNW 9 13 5 7 1022.6 1022.5 0.0
28/04:00pm 22.5 18.6 0.9 24 10.1 NW 11 19 6 10 1022.5 1022.4 0.0
28/03:30pm 22.3 19.1 0.8 24 10.1 NW 7 11 4 6 1022.7 1022.6 0.0
28/03:00pm 22.3 17.7 1.3 25 9.9 NNW 15 22 8 12 1022.6 1022.5 0.0
28/02:30pm 22.1 17.5 1.7 26 9.7 NNW 15 22 8 12 1022.5 1022.4 0.0
28/02:00pm 22.2 17.8 2.8 28 9.4 NNW 15 20 8 11 1023.1 1023.0 0.0
28/01:30pm 21.0 17.0 2.8 30 8.8 N 13 22 7 12 1023.6 1023.4 0.0
28/01:00pm 21.6 16.9 3.3 30 8.9 NNW 17 22 9 12 1024.0 1023.8 0.0
28/12:30pm 20.9 16.7 3.6 32 8.5 NNW 15 26 8 14 1024.3 1024.2 0.0
28/12:00pm 20.2 15.9 5.4 38 7.4 NNW 17 24 9 13 1024.7 1024.6 0.0
28/11:30am 19.0 14.2 4.7 39 7.1 N 19 26 10 14 1025.5 1025.4 0.0

Other Formats:

Comma delimited format used in spreadsheet applications
http://www.bom.gov.au/fwo/IDW60801/IDW60801.94449.axf

JavaScript Object Notation format (JSON) in row-major order
http://www.bom.gov.au/fwo/IDW60801/IDW60801.94449.json